Time;durP1;ratioP1;P1;durP2;ratioP2;P2;SDS_P1;SDS_P2;PMS_P1;PMS_P2;Temp;Humidity;BMP_temperature;BMP_pressure;BME280_temperature;BME280_humidity;BME280_pressure;Samples;Min_cycle;Max_cycle;Signal;HPM_P1;HPM_P2
2023/01/27 00:00:03;;;;;;;1.67;0.88;;;18.00;61.90;;;;;;5053203;28;20156;-73
2023/01/27 00:02:29;;;;;;;1.05;0.57;;;18.00;61.90;;;;;;5053152;28;20053;-73
2023/01/27 00:04:58;;;;;;;1.38;0.63;;;17.90;61.90;;;;;;5054188;28;20499;-73
2023/01/27 00:07:25;;;;;;;1.75;0.73;;;17.90;61.90;;;;;;5038427;28;20056;-73
2023/01/27 00:09:52;;;;;;;1.35;0.60;;;17.90;61.80;;;;;;5042208;28;20045;-73
2023/01/27 00:15:06;;;;;;;1.65;1.17;;;17.90;61.90;;;;;;5054287;28;20045;-73
2023/01/27 00:17:33;;;;;;;1.27;0.20;;;17.90;61.90;;;;;;5036991;28;20407;-73
2023/01/27 00:20:02;;;;;;;1.40;0.60;;;17.90;61.90;;;;;;5033279;28;20052;-73
2023/01/27 00:25:13;;;;;;;1.10;0.68;;;17.90;61.90;;;;;;5033673;28;20049;-72
2023/01/27 00:27:40;;;;;;;1.38;0.63;;;17.90;61.90;;;;;;5034090;28;20490;-73
2023/01/27 00:30:09;;;;;;;0.98;0.70;;;17.80;61.80;;;;;;5033981;28;20049;-73
2023/01/27 00:35:21;;;;;;;1.00;0.65;;;17.80;62.40;;;;;;5033846;28;20052;-73
2023/01/27 00:37:48;;;;;;;1.67;0.63;;;17.80;62.40;;;;;;5041353;28;20041;-73
2023/01/27 00:40:17;;;;;;;1.10;0.70;;;17.80;61.80;;;;;;5042105;28;20048;-73
2023/01/27 00:42:44;;;;;;;1.15;0.68;;;17.80;61.80;;;;;;5032300;28;20061;-72
2023/01/27 00:47:56;;;;;;;1.15;0.57;;;17.80;61.80;;;;;;5051598;28;20497;-73
2023/01/27 00:50:24;;;;;;;1.73;0.80;;;17.80;61.80;;;;;;5042302;28;20049;-72
2023/01/27 00:52:51;;;;;;;1.27;0.77;;;17.80;61.80;;;;;;5039094;28;20044;-73
2023/01/27 00:55:19;;;;;;;1.63;1.42;;;17.80;61.80;;;;;;5053277;28;20081;-73
2023/01/27 00:57:46;;;;;;;0.98;0.70;;;17.80;61.80;;;;;;5042598;28;20099;-73
2023/01/27 01:00:14;;;;;;;0.90;0.57;;;17.80;61.80;;;;;;5039277;28;20057;-72
2023/01/27 01:02:41;;;;;;;1.00;0.73;;;17.80;61.80;;;;;;5040635;28;20696;-73
2023/01/27 01:05:08;;;;;;;0.98;0.15;;;17.70;61.80;;;;;;5033104;28;20049;-72
2023/01/27 01:07:37;;;;;;;0.88;0.57;;;17.80;61.80;;;;;;5033223;28;20052;-72
2023/01/27 01:10:04;;;;;;;1.52;0.65;;;17.80;61.80;;;;;;5032077;28;20057;-72
2023/01/27 01:12:31;;;;;;;0.80;0.10;;;17.80;61.80;;;;;;5033541;28;20049;-72
2023/01/27 01:14:58;;;;;;;1.05;0.57;;;17.80;61.80;;;;;;5031685;28;20053;-72
2023/01/27 01:17:25;;;;;;;2.03;0.60;;;17.70;61.80;;;;;;5031829;28;20536;-73
2023/01/27 01:19:52;;;;;;;1.98;0.82;;;17.70;61.80;;;;;;5034312;28;20123;-73
2023/01/27 01:22:19;;;;;;;0.95;0.57;;;17.70;61.80;;;;;;5034026;28;20050;-73
2023/01/27 01:24:47;;;;;;;0.82;0.70;;;17.70;61.80;;;;;;5032942;28;20049;-73
2023/01/27 01:27:14;;;;;;;1.23;0.98;;;17.70;61.80;;;;;;5031724;28;20092;-73
2023/01/27 01:29:41;;;;;;;1.40;0.57;;;17.70;61.80;;;;;;5031744;28;20050;-73
2023/01/27 01:32:09;;;;;;;1.10;0.60;;;17.70;61.80;;;;;;5031120;28;20056;-72
2023/01/27 01:34:36;;;;;;;1.80;1.10;;;17.70;62.50;;;;;;5031755;28;20053;-73
2023/01/27 01:37:04;;;;;;;0.80;0.10;;;17.70;61.90;;;;;;5051761;28;20052;-73
2023/01/27 01:39:31;;;;;;;0.90;0.52;;;17.70;61.80;;;;;;5034730;28;20053;-73
2023/01/27 01:41:59;;;;;;;0.75;0.60;;;17.70;61.80;;;;;;5046667;28;20490;-72
2023/01/27 01:44:28;;;;;;;0.80;0.20;;;17.70;61.80;;;;;;5032593;28;20473;-72
2023/01/27 01:46:55;;;;;;;1.23;0.60;;;17.70;61.80;;;;;;5031431;28;20552;-73
2023/01/27 01:49:27;;;;;;;1.50;0.90;;;17.60;61.80;;;;;;5033005;28;20041;-73
2023/01/27 01:51:57;;;;;;;1.15;0.75;;;17.60;61.70;;;;;;5032834;28;20045;-73
2023/01/27 01:54:28;;;;;;;0.85;0.10;;;17.60;61.80;;;;;;5044734;28;20083;-72
2023/01/27 01:57:02;;;;;;;1.38;0.65;;;17.60;61.80;;;;;;5047529;28;20068;-73
2023/01/27 01:59:32;;;;;;;1.17;0.10;;;17.60;61.80;;;;;;5051409;28;20095;-73
2023/01/27 02:02:03;;;;;;;0.70;0.05;;;17.60;61.80;;;;;;5048355;28;20037;-73
2023/01/27 02:04:35;;;;;;;1.10;0.75;;;17.60;61.80;;;;;;5031009;28;20494;-72
2023/01/27 02:07:07;;;;;;;0.60;0.10;;;17.60;61.80;;;;;;5031907;28;20052;-72
2023/01/27 02:09:34;;;;;;;0.73;0.10;;;17.60;61.80;;;;;;5038978;28;20517;-72
2023/01/27 02:12:04;;;;;;;1.33;0.73;;;17.60;61.70;;;;;;5030121;28;20061;-73
2023/01/27 02:14:31;;;;;;;1.10;0.80;;;17.50;61.70;;;;;;5032112;28;20045;-73
2023/01/27 02:16:58;;;;;;;0.93;0.17;;;17.60;61.80;;;;;;5044272;28;20057;-73
2023/01/27 02:19:30;;;;;;;1.48;0.10;;;17.60;61.80;;;;;;5035136;28;20057;-73
2023/01/27 02:21:58;;;;;;;0.98;0.70;;;17.60;61.70;;;;;;5030962;28;20081;-72
2023/01/27 02:24:31;;;;;;;1.08;0.70;;;17.60;61.70;;;;;;5036388;28;20057;-73
2023/01/27 02:26:59;;;;;;;1.10;0.10;;;17.60;61.70;;;;;;5031482;28;20068;-72
2023/01/27 02:29:27;;;;;;;1.40;0.45;;;17.70;61.70;;;;;;5031868;28;20419;-72
2023/01/27 02:31:54;;;;;;;0.50;0.10;;;17.70;61.60;;;;;;5032004;28;20045;-72
2023/01/27 02:34:25;;;;;;;1.45;0.75;;;17.70;61.60;;;;;;5030612;28;20709;-73
2023/01/27 02:36:58;;;;;;;1.25;1.15;;;17.80;62.10;;;;;;5032976;28;20053;-73
2023/01/27 02:39:32;;;;;;;1.58;0.60;;;17.80;61.40;;;;;;5031423;28;20049;-72
2023/01/27 02:42:04;;;;;;;0.63;0.10;;;17.90;61.40;;;;;;5051429;28;20056;-73
2023/01/27 02:44:31;;;;;;;0.80;0.17;;;17.90;61.20;;;;;;5051342;28;20059;-72
2023/01/27 02:46:58;;;;;;;1.20;0.70;;;18.00;61.20;;;;;;5050471;28;20053;-72
2023/01/27 02:49:25;;;;;;;0.80;0.57;;;18.10;61.10;;;;;;5050535;28;20053;-73
2023/01/27 02:51:52;;;;;;;0.82;0.10;;;18.10;61.00;;;;;;5041430;28;20059;-73
2023/01/27 02:54:19;;;;;;;1.00;0.68;;;18.20;60.90;;;;;;5047754;28;20049;-73
2023/01/27 02:56:46;;;;;;;1.20;0.60;;;18.30;60.80;;;;;;5031061;28;20053;-73
2023/01/27 02:59:14;;;;;;;0.90;0.63;;;18.40;60.70;;;;;;5031963;28;20076;-73
2023/01/27 03:01:41;;;;;;;0.43;0.10;;;18.40;60.70;;;;;;5031623;28;20049;-72
2023/01/27 03:04:10;;;;;;;0.98;0.68;;;18.50;60.60;;;;;;5031212;28;20066;-73
2023/01/27 03:06:37;;;;;;;0.88;0.10;;;18.50;60.60;;;;;;5030135;28;20052;-73
2023/01/27 03:09:05;;;;;;;0.80;0.10;;;18.50;60.50;;;;;;5030216;28;20057;-73
2023/01/27 03:14:17;;;;;;;0.90;0.35;;;18.60;60.50;;;;;;5031220;28;20526;-73
2023/01/27 03:19:28;;;;;;;0.73;0.55;;;18.60;60.50;;;;;;5031465;28;20073;-73
2023/01/27 03:21:55;;;;;;;0.68;0.10;;;18.60;60.50;;;;;;5031519;28;20054;-73
2023/01/27 03:24:22;;;;;;;0.98;0.60;;;18.50;60.50;;;;;;5034687;28;20061;-73
2023/01/27 03:26:49;;;;;;;1.02;0.25;;;18.50;60.50;;;;;;5035555;28;20118;-73
2023/01/27 03:32:02;;;;;;;0.90;0.57;;;18.50;60.60;;;;;;5035057;28;20516;-73
2023/01/27 03:34:29;;;;;;;1.42;0.20;;;18.50;60.70;;;;;;5035250;28;20072;-72
2023/01/27 03:47:55;;;;;;;0.85;0.82;;;18.30;60.70;;;;;;5035086;28;20067;-73
2023/01/27 03:50:36;;;;;;;1.02;0.10;;;18.30;60.80;;;;;;5045777;28;20064;-72
2023/01/27 03:53:03;;;;;;;0.80;0.43;;;18.30;60.80;;;;;;5043937;28;20052;-73
2023/01/27 03:55:30;;;;;;;1.00;0.68;;;18.20;60.80;;;;;;5050224;28;20057;-73
2023/01/27 03:58:04;;;;;;;1.00;0.63;;;18.20;61.00;;;;;;5034832;28;20050;-72
2023/01/27 04:00:33;;;;;;;1.58;0.55;;;18.20;61.00;;;;;;5034880;28;20049;-72
2023/01/27 04:08:28;;;;;;;0.55;0.10;;;18.10;61.10;;;;;;5048532;28;20127;-72
2023/01/27 04:13:43;;;;;;;1.13;0.10;;;18.00;61.10;;;;;;5034003;28;20056;-73
2023/01/27 04:16:11;;;;;;;0.75;0.25;;;18.00;61.20;;;;;;5034072;28;20049;-73
2023/01/27 04:18:38;;;;;;;1.05;0.82;;;18.00;61.20;;;;;;5048238;28;20059;-73
2023/01/27 04:21:05;;;;;;;0.47;0.10;;;18.00;61.30;;;;;;5034102;28;20048;-73
2023/01/27 04:23:32;;;;;;;0.55;0.10;;;18.00;61.30;;;;;;5034414;28;20053;-73
2023/01/27 04:25:59;;;;;;;0.73;0.43;;;17.90;61.30;;;;;;5033953;28;20494;-73
2023/01/27 04:28:26;;;;;;;1.00;0.52;;;17.90;61.30;;;;;;5049394;28;20068;-73
2023/01/27 04:30:53;;;;;;;0.93;0.57;;;17.90;61.40;;;;;;5035047;28;20057;-73
2023/01/27 04:33:21;;;;;;;0.70;0.10;;;17.90;61.30;;;;;;5033833;28;20437;-73
2023/01/27 04:35:50;;;;;;;0.28;0.10;;;17.90;61.40;;;;;;5034025;28;20060;-73
2023/01/27 04:38:17;;;;;;;1.00;0.55;;;17.80;61.40;;;;;;5043545;28;20076;-73
2023/01/27 04:40:44;;;;;;;1.08;0.57;;;17.90;61.40;;;;;;5033766;28;20045;-72
2023/01/27 04:43:10;;;;;;;0.73;0.10;;;17.80;61.40;;;;;;5032701;28;20049;-73
2023/01/27 04:45:37;;;;;;;1.00;0.70;;;17.80;61.50;;;;;;5036209;28;20049;-73
2023/01/27 04:48:06;;;;;;;0.57;0.17;;;17.80;61.50;;;;;;5042550;28;20057;-73
2023/01/27 04:50:34;;;;;;;1.02;0.45;;;17.70;61.40;;;;;;5054076;28;20045;-72
2023/01/27 04:53:01;;;;;;;0.73;0.00;;;17.70;61.50;;;;;;5050617;28;20056;-73
2023/01/27 04:55:28;;;;;;;0.77;0.32;;;17.80;61.50;;;;;;5042997;28;20054;-72
2023/01/27 04:57:55;;;;;;;0.93;0.82;;;17.70;61.50;;;;;;5032327;28;20108;-73
2023/01/27 05:00:22;;;;;;;1.60;0.45;;;17.70;61.50;;;;;;5033831;28;20049;-72
2023/01/27 05:02:49;;;;;;;0.40;0.10;;;17.70;61.60;;;;;;5044392;28;20592;-73
2023/01/27 05:05:16;;;;;;;0.88;0.45;;;17.70;61.60;;;;;;5049891;28;20059;-72
2023/01/27 05:07:44;;;;;;;1.00;0.60;;;17.60;61.50;;;;;;5053612;28;20045;-73
2023/01/27 05:10:12;;;;;;;0.82;0.57;;;17.70;61.60;;;;;;5051395;28;20071;-72
2023/01/27 05:12:39;;;;;;;0.98;0.60;;;17.70;61.60;;;;;;5047343;28;20102;-73
2023/01/27 05:15:07;;;;;;;1.27;0.20;;;17.70;61.60;;;;;;5050181;28;20417;-72
2023/01/27 05:17:34;;;;;;;1.38;1.27;;;17.60;61.60;;;;;;5042627;28;20104;-72
2023/01/27 05:20:01;;;;;;;0.85;0.43;;;17.60;61.60;;;;;;5033015;28;20045;-73
2023/01/27 05:22:28;;;;;;;0.80;0.10;;;17.60;61.60;;;;;;5031845;28;20104;-72
2023/01/27 05:24:56;;;;;;;0.77;0.50;;;17.60;61.60;;;;;;5032413;28;20049;-73
2023/01/27 05:27:23;;;;;;;0.80;0.75;;;17.50;61.60;;;;;;5051783;28;20057;-72
2023/01/27 05:29:50;;;;;;;0.20;0.00;;;17.50;61.50;;;;;;5053105;28;20049;-73
2023/01/27 05:32:17;;;;;;;0.93;0.50;;;17.50;62.10;;;;;;5049662;28;20506;-72
2023/01/27 05:34:44;;;;;;;0.80;0.57;;;17.50;61.50;;;;;;5051379;28;20045;-72
2023/01/27 05:37:11;;;;;;;1.00;0.50;;;17.60;61.60;;;;;;5051648;28;20057;-72
2023/01/27 05:39:38;;;;;;;0.90;0.55;;;17.60;61.50;;;;;;5043739;28;20048;-73
2023/01/27 05:42:06;;;;;;;0.95;0.60;;;17.60;61.40;;;;;;5045132;28;20041;-72
2023/01/27 05:44:33;;;;;;;0.40;0.10;;;17.60;61.40;;;;;;5031057;28;20099;-72
2023/01/27 05:47:00;;;;;;;0.45;0.10;;;17.70;61.40;;;;;;5049564;28;20057;-72
2023/01/27 05:49:27;;;;;;;1.70;1.60;;;17.80;61.30;;;;;;5049738;28;20155;-72
2023/01/27 05:51:54;;;;;;;0.40;0.08;;;17.80;61.20;;;;;;5052653;28;20222;-73
2023/01/27 05:54:21;;;;;;;1.27;1.17;;;17.80;61.10;;;;;;5050764;28;20045;-72
2023/01/27 05:56:48;;;;;;;0.90;0.52;;;17.90;61.10;;;;;;5050697;28;20110;-73
2023/01/27 05:59:16;;;;;;;0.90;0.82;;;18.00;61.00;;;;;;5050568;28;20037;-73
2023/01/27 06:01:43;;;;;;;0.52;0.10;;;18.00;60.90;;;;;;5033546;28;20494;-73
2023/01/27 06:04:10;;;;;;;1.10;0.75;;;18.10;60.80;;;;;;5032043;28;20061;-73
2023/01/27 06:06:37;;;;;;;0.60;0.10;;;18.10;60.70;;;;;;5032312;28;20045;-72
2023/01/27 06:09:04;;;;;;;0.57;0.10;;;18.20;60.60;;;;;;5041968;28;20049;-72
2023/01/27 06:11:31;;;;;;;0.93;0.65;;;18.30;60.60;;;;;;5040560;28;20064;-72
2023/01/27 06:13:58;;;;;;;1.10;0.55;;;18.40;60.50;;;;;;5030569;28;20054;-72
2023/01/27 06:16:26;;;;;;;0.47;0.13;;;18.50;60.40;;;;;;5038210;28;20060;-72
2023/01/27 06:18:53;;;;;;;0.85;0.50;;;18.50;60.30;;;;;;5051078;28;20057;-72
2023/01/27 06:21:20;;;;;;;1.13;0.70;;;18.60;60.30;;;;;;5050471;28;20049;-72
2023/01/27 06:23:47;;;;;;;0.88;0.70;;;18.60;60.20;;;;;;5052161;28;20053;-72
2023/01/27 06:26:16;;;;;;;0.80;0.50;;;18.70;60.10;;;;;;5032450;28;20064;-72
2023/01/27 06:28:43;;;;;;;0.73;0.57;;;18.70;60.10;;;;;;5030616;28;20052;-72
2023/01/27 06:31:12;;;;;;;0.98;0.55;;;18.70;60.00;;;;;;5034453;28;20045;-72
2023/01/27 06:33:41;;;;;;;0.93;0.65;;;18.70;60.00;;;;;;5032178;28;20199;-73
2023/01/27 06:36:10;;;;;;;0.30;0.00;;;18.80;60.10;;;;;;5032113;28;20060;-72
2023/01/27 06:38:37;;;;;;;1.45;1.27;;;18.70;60.00;;;;;;5031418;28;20495;-72
2023/01/27 06:41:05;;;;;;;0.43;0.00;;;18.70;60.10;;;;;;5030235;28;20049;-72
2023/01/27 06:43:32;;;;;;;1.13;0.98;;;18.70;60.10;;;;;;5031212;28;20557;-72
2023/01/27 06:45:59;;;;;;;0.57;0.05;;;18.70;60.20;;;;;;5045368;28;20486;-72
2023/01/27 06:48:27;;;;;;;0.50;0.10;;;18.60;60.20;;;;;;5049265;28;20059;-73
2023/01/27 06:50:56;;;;;;;0.95;0.68;;;18.60;60.20;;;;;;5047322;28;20041;-73
2023/01/27 06:53:23;;;;;;;0.70;0.50;;;18.60;60.90;;;;;;5048356;28;20053;-73
2023/01/27 06:55:55;;;;;;;0.95;0.50;;;18.60;60.30;;;;;;5050031;28;20052;-73
2023/01/27 06:58:22;;;;;;;0.80;0.50;;;18.50;60.30;;;;;;5048208;28;20049;-73
2023/01/27 07:00:49;;;;;;;0.82;0.63;;;18.50;60.40;;;;;;5051150;28;20502;-72
2023/01/27 07:03:16;;;;;;;0.80;0.40;;;18.50;60.40;;;;;;5050076;28;20060;-72
2023/01/27 07:05:43;;;;;;;0.40;0.10;;;18.50;60.50;;;;;;5050953;28;20413;-72
2023/01/27 07:08:12;;;;;;;0.77;0.30;;;18.40;60.50;;;;;;5050965;28;20048;-72
2023/01/27 07:10:39;;;;;;;0.70;0.35;;;18.40;60.50;;;;;;5049924;28;20053;-72
2023/01/27 07:13:06;;;;;;;0.57;0.10;;;18.30;60.50;;;;;;5049677;28;20138;-73
2023/01/27 07:15:34;;;;;;;0.88;0.85;;;18.30;60.60;;;;;;5049856;28;20136;-73
2023/01/27 07:18:01;;;;;;;1.45;0.63;;;18.30;60.70;;;;;;5050320;28;20128;-72
2023/01/27 07:20:28;;;;;;;0.80;0.10;;;18.20;60.60;;;;;;5050005;28;20060;-73
2023/01/27 07:22:57;;;;;;;0.55;0.38;;;18.20;60.70;;;;;;5040089;28;20041;-72
2023/01/27 07:25:26;;;;;;;0.82;0.55;;;18.20;60.70;;;;;;5029641;28;20092;-72
2023/01/27 07:27:53;;;;;;;0.43;0.10;;;18.20;60.80;;;;;;5030089;28;20410;-72
2023/01/27 07:30:20;;;;;;;0.75;0.25;;;18.10;60.80;;;;;;5030987;28;20418;-72
2023/01/27 07:32:49;;;;;;;0.80;0.70;;;18.10;60.80;;;;;;5044633;28;20084;-72
2023/01/27 07:35:16;;;;;;;1.25;1.15;;;18.10;60.90;;;;;;5029821;28;20060;-73
2023/01/27 07:37:43;;;;;;;0.73;0.50;;;18.00;60.90;;;;;;5043027;28;20045;-72
2023/01/27 07:40:12;;;;;;;0.10;0.00;;;18.00;60.90;;;;;;5050825;28;20041;-72
2023/01/27 07:42:40;;;;;;;0.95;0.50;;;18.00;61.00;;;;;;5050892;28;20049;-72
2023/01/27 07:45:09;;;;;;;0.70;0.40;;;18.00;61.10;;;;;;5042770;28;20068;-72
2023/01/27 07:47:36;;;;;;;0.38;0.00;;;17.90;61.60;;;;;;5032092;28;20046;-72
2023/01/27 07:50:03;;;;;;;0.65;0.10;;;17.90;61.20;;;;;;5041562;28;20046;-72
2023/01/27 07:52:30;;;;;;;2.58;0.65;;;17.90;61.10;;;;;;5029996;28;20053;-72
2023/01/27 07:54:57;;;;;;;0.90;0.55;;;17.90;61.10;;;;;;5030801;28;20139;-72
2023/01/27 07:57:23;;;;;;;0.50;0.10;;;17.90;61.10;;;;;;5032740;28;20057;-72
2023/01/27 07:59:54;;;;;;;0.50;0.20;;;17.90;61.20;;;;;;5029639;28;20450;-72
2023/01/27 08:02:21;;;;;;;0.82;0.45;;;17.90;61.20;;;;;;5032898;28;20108;-72
2023/01/27 08:04:48;;;;;;;0.90;0.60;;;17.80;61.20;;;;;;5037459;28;20516;-72
2023/01/27 08:07:15;;;;;;;0.60;0.10;;;17.80;61.50;;;;;;5050858;28;20049;-72
2023/01/27 08:09:43;;;;;;;1.20;0.45;;;17.80;61.20;;;;;;5051409;28;20088;-72
2023/01/27 08:12:10;;;;;;;0.80;0.52;;;17.80;61.20;;;;;;5054130;28;20049;-72
2023/01/27 08:14:37;;;;;;;0.30;0.00;;;17.80;61.20;;;;;;5040644;28;20394;-73
2023/01/27 08:17:05;;;;;;;0.98;0.88;;;17.70;61.20;;;;;;5053784;28;20060;-72
2023/01/27 08:19:32;;;;;;;0.90;0.70;;;17.80;61.30;;;;;;5054253;28;20049;-72
2023/01/27 08:21:59;;;;;;;0.60;0.45;;;17.70;61.30;;;;;;5053028;28;20482;-72
2023/01/27 08:24:26;;;;;;;0.60;0.08;;;17.70;61.30;;;;;;5051003;28;20057;-72
2023/01/27 08:26:53;;;;;;;0.52;0.10;;;17.70;61.30;;;;;;5038025;28;20072;-72
2023/01/27 08:29:20;;;;;;;0.90;0.47;;;17.70;61.30;;;;;;5034532;28;20046;-72
2023/01/27 08:31:47;;;;;;;0.70;0.40;;;17.70;61.30;;;;;;5046606;28;20045;-72
2023/01/27 08:34:15;;;;;;;0.50;0.03;;;17.70;61.30;;;;;;5039364;28;20056;-72
2023/01/27 08:36:43;;;;;;;0.70;0.10;;;17.70;61.30;;;;;;5039206;28;20509;-72
2023/01/27 08:39:10;;;;;;;0.15;0.00;;;17.60;61.30;;;;;;5042683;28;20048;-72
2023/01/27 08:41:37;;;;;;;0.28;0.00;;;17.70;61.40;;;;;;5053102;28;20045;-72
2023/01/27 08:44:04;;;;;;;0.65;0.38;;;17.60;61.30;;;;;;5046090;28;20497;-72
2023/01/27 08:46:31;;;;;;;1.05;0.20;;;17.60;61.30;;;;;;5042741;28;20449;-72
2023/01/27 08:48:58;;;;;;;1.10;0.70;;;17.70;61.30;;;;;;5033743;28;20061;-72
2023/01/27 08:51:27;;;;;;;0.73;0.50;;;17.60;61.80;;;;;;5032553;28;20072;-72
2023/01/27 08:53:54;;;;;;;0.35;0.00;;;17.70;61.30;;;;;;5033905;28;20371;-72
2023/01/27 08:56:21;;;;;;;0.82;0.57;;;17.70;61.30;;;;;;5033735;28;20068;-72
2023/01/27 08:58:51;;;;;;;0.95;0.57;;;17.70;61.10;;;;;;5038442;28;20052;-74
2023/01/27 09:01:19;;;;;;;0.63;0.45;;;17.80;61.20;;;;;;5042619;28;20060;-72
2023/01/27 09:03:46;;;;;;;0.85;0.55;;;17.80;61.10;;;;;;5052236;28;20049;-73
2023/01/27 09:06:13;;;;;;;0.60;0.40;;;17.80;61.00;;;;;;5053131;28;20084;-73
2023/01/27 09:08:42;;;;;;;2.85;0.40;;;17.90;61.00;;;;;;5044397;28;20048;-72
2023/01/27 09:11:11;;;;;;;0.82;0.40;;;18.00;61.00;;;;;;5043255;28;20037;-72
2023/01/27 09:13:38;;;;;;;0.68;0.57;;;18.00;60.90;;;;;;5071247;28;20044;-72
2023/01/27 09:16:06;;;;;;;1.10;0.57;;;18.10;60.80;;;;;;5071849;28;20048;-72
2023/01/27 09:18:33;;;;;;;0.95;0.60;;;18.10;60.80;;;;;;5073016;28;20099;-72
2023/01/27 09:21:03;;;;;;;0.55;0.43;;;18.20;60.70;;;;;;5071493;28;20056;-73
2023/01/27 09:23:30;;;;;;;0.73;0.40;;;18.30;60.60;;;;;;5073130;28;20091;-72
2023/01/27 09:25:59;;;;;;;0.50;0.00;;;18.40;60.50;;;;;;5052114;28;20060;-72
2023/01/27 09:28:26;;;;;;;1.05;0.60;;;18.40;60.40;;;;;;5053062;28;20045;-73
2023/01/27 09:30:57;;;;;;;0.98;0.57;;;18.50;60.30;;;;;;5051669;28;20541;-72
2023/01/27 09:33:24;;;;;;;0.90;0.38;;;18.60;60.30;;;;;;5050126;28;20077;-72
2023/01/27 09:35:56;;;;;;;0.30;0.10;;;18.70;60.20;;;;;;5052995;28;20080;-72
2023/01/27 09:38:24;;;;;;;0.47;0.03;;;18.80;60.10;;;;;;5052705;28;20409;-73
2023/01/27 09:41:14;;;;;;;0.77;0.47;;;18.80;60.00;;;;;;5038141;28;20049;-72
2023/01/27 09:44:07;;;;;;;1.55;0.63;;;18.90;59.90;;;;;;5051608;28;20122;-73
2023/01/27 09:46:56;;;;;;;0.70;0.40;;;19.00;60.40;;;;;;5049905;28;20052;-72
2023/01/27 09:49:59;;;;;;;0.45;0.10;;;19.10;59.80;;;;;;5032524;28;20041;-72
2023/01/27 09:52:50;;;;;;;1.20;0.98;;;19.20;59.70;;;;;;4996886;28;20050;-72
2023/01/27 09:55:23;;;;;;;0.77;0.25;;;19.20;59.50;;;;;;5036135;28;20041;-72
2023/01/27 09:58:01;;;;;;;0.50;0.10;;;19.30;59.40;;;;;;5036591;28;20053;-72
2023/01/27 10:00:43;;;;;;;0.70;0.50;;;19.40;59.40;;;;;;5030850;28;20049;-72
2023/01/27 10:03:22;;;;;;;;;;;19.40;59.30;;;;;;5033041;28;20219;-70
2023/01/27 10:06:36;;;;;;;1.25;0.10;;;19.50;59.60;;;;;;5035556;28;19990;-71
2023/01/27 10:09:33;;;;;;;1.40;0.55;;;19.60;59.40;;;;;;5011081;28;20045;-69
2023/01/27 10:12:07;;;;;;;1.00;0.52;;;19.70;59.30;;;;;;5043182;28;20056;-69
2023/01/27 10:14:47;;;;;;;0.65;0.55;;;19.70;59.20;;;;;;5049852;28;20045;-72
2023/01/27 10:17:30;;;;;;;0.70;0.47;;;19.80;59.20;;;;;;5034146;28;20064;-70
2023/01/27 10:20:12;;;;;;;1.00;0.50;;;19.90;59.30;;;;;;5031069;28;20046;-68
2023/01/27 10:22:48;;;;;;;1.15;0.50;;;19.90;59.20;;;;;;5041252;28;20119;-68
2023/01/27 10:25:25;;;;;;;0.73;0.13;;;19.90;59.30;;;;;;5041215;28;20075;-69
2023/01/27 10:27:56;;;;;;;1.25;1.13;;;20.00;59.30;;;;;;5029373;28;20048;-71
2023/01/27 10:30:32;;;;;;;0.57;0.38;;;20.00;59.30;;;;;;5042688;28;20119;-72
2023/01/27 10:33:07;;;;;;;0.70;0.40;;;20.00;59.30;;;;;;5041124;28;20048;-71
2023/01/27 10:35:44;;;;;;;1.00;0.90;;;20.00;59.40;;;;;;5030563;28;20053;-72
2023/01/27 10:38:19;;;;;;;1.77;0.50;;;20.00;59.50;;;;;;5030950;28;20056;-71
2023/01/27 10:40:53;;;;;;;0.93;0.08;;;19.90;59.50;;;;;;5037331;28;20057;-71
2023/01/27 10:43:29;;;;;;;0.60;0.00;;;19.90;59.60;;;;;;5040532;28;20065;-71
2023/01/27 10:46:08;;;;;;;0.50;0.10;;;19.90;59.80;;;;;;5031265;28;20049;-72
2023/01/27 10:48:42;;;;;;;0.60;0.00;;;19.80;59.80;;;;;;5030911;28;20053;-71
2023/01/27 10:51:13;;;;;;;0.85;0.40;;;19.80;60.00;;;;;;5037713;28;20088;-70
2023/01/27 10:53:49;;;;;;;1.17;1.08;;;19.70;60.00;;;;;;5030209;28;20132;-69
2023/01/27 10:56:23;;;;;;;;;;;19.70;60.20;;;;;;5048245;28;20045;-70
2023/01/27 10:58:58;;;;;;;0.77;0.50;;;19.60;60.20;;;;;;5045651;28;20012;-69
2023/01/27 11:01:31;;;;;;;0.70;0.00;;;19.60;60.30;;;;;;5040354;28;20045;-70
2023/01/27 11:04:02;;;;;;;1.15;0.60;;;19.50;60.40;;;;;;5031917;28;20049;-69
2023/01/27 11:06:35;;;;;;;2.05;0.10;;;19.50;60.50;;;;;;5042975;28;20067;-70
2023/01/27 11:09:10;;;;;;;0.63;0.55;;;19.40;60.50;;;;;;5032977;28;20588;-72
2023/01/27 11:11:44;;;;;;;1.73;0.52;;;19.40;60.60;;;;;;5040988;28;20099;-72
2023/01/27 11:14:22;;;;;;;1.17;0.45;;;19.40;60.70;;;;;;5040844;28;20502;-73
2023/01/27 11:16:52;;;;;;;0.80;0.35;;;19.30;60.80;;;;;;5048103;28;20110;-70
2023/01/27 11:19:31;;;;;;;1.48;0.43;;;19.30;60.80;;;;;;5048762;28;20063;-71
2023/01/27 11:21:59;;;;;;;2.03;0.70;;;19.20;60.90;;;;;;5043488;28;20132;-70
2023/01/27 11:24:32;;;;;;;1.17;0.40;;;19.20;61.00;;;;;;5043292;28;20136;-70
2023/01/27 11:27:06;;;;;;;1.13;0.35;;;19.10;61.00;;;;;;5047475;28;20858;-70
2023/01/27 11:29:41;;;;;;;0.55;0.10;;;19.10;61.70;;;;;;5044757;28;20067;-71
2023/01/27 11:32:21;;;;;;;1.25;0.40;;;19.10;61.10;;;;;;5048225;28;20045;-71
2023/01/27 11:34:59;;;;;;;0.70;0.50;;;19.00;61.20;;;;;;5028432;28;20045;-72
2023/01/27 11:37:31;;;;;;;0.75;0.47;;;19.00;61.20;;;;;;5033196;28;20037;-68
2023/01/27 11:39:58;;;;;;;1.08;0.45;;;19.00;61.30;;;;;;5037094;28;20048;-70
2023/01/27 11:42:30;;;;;;;1.30;0.68;;;18.90;61.30;;;;;;5029979;28;20042;-70
2023/01/27 11:44:59;;;;;;;1.45;0.10;;;18.90;61.40;;;;;;5044765;28;20127;-69
2023/01/27 11:47:30;;;;;;;0.57;0.47;;;18.90;61.40;;;;;;5051888;28;20051;-70
2023/01/27 11:49:58;;;;;;;0.93;0.43;;;18.90;61.50;;;;;;5036246;28;20050;-71
2023/01/27 11:52:27;;;;;;;1.63;0.60;;;18.90;61.50;;;;;;5032334;28;20845;-69
2023/01/27 11:55:01;;;;;;;0.82;0.43;;;18.80;61.50;;;;;;5034055;28;20056;-70
2023/01/27 11:57:28;;;;;;;0.75;0.60;;;18.90;61.60;;;;;;5033436;28;20048;-69
2023/01/27 11:59:59;;;;;;;1.00;0.50;;;18.90;62.10;;;;;;5037780;28;20053;-72
2023/01/27 12:02:35;;;;;;;1.17;0.15;;;18.90;61.50;;;;;;5042739;28;20055;-72
2023/01/27 12:05:07;;;;;;;0.80;0.63;;;18.90;61.50;;;;;;5043213;28;20058;-75
2023/01/27 12:07:45;;;;;;;0.88;0.30;;;19.00;61.40;;;;;;5033116;28;20076;-71
2023/01/27 12:10:29;;;;;;;1.02;0.60;;;19.10;61.40;;;;;;5032908;28;20076;-69
2023/01/27 12:12:57;;;;;;;1.42;1.33;;;19.10;61.90;;;;;;5040940;28;20061;-69
2023/01/27 12:15:26;;;;;;;0.75;0.40;;;19.20;61.30;;;;;;5035378;28;20049;-70
2023/01/27 12:17:58;;;;;;;1.40;1.08;;;19.20;61.20;;;;;;5033101;28;20486;-69
2023/01/27 12:20:35;;;;;;;0.75;0.47;;;19.30;61.10;;;;;;5031314;28;20137;-70
2023/01/27 12:23:13;;;;;;;1.00;0.50;;;19.30;61.00;;;;;;5034313;28;20085;-71
2023/01/27 12:25:44;;;;;;;1.40;0.60;;;19.40;61.00;;;;;;5050871;28;20049;-70
2023/01/27 12:28:25;;;;;;;1.00;0.40;;;19.50;60.90;;;;;;5050598;28;20045;-70
2023/01/27 12:30:54;;;;;;;0.63;0.30;;;19.50;60.90;;;;;;5032136;28;20486;-70
2023/01/27 12:33:27;;;;;;;1.40;0.50;;;19.60;61.40;;;;;;5035401;28;20049;-70
2023/01/27 12:35:59;;;;;;;0.80;0.40;;;19.70;60.70;;;;;;5031669;28;20205;-70
2023/01/27 12:38:30;;;;;;;0.73;0.38;;;19.70;61.30;;;;;;5045606;28;20053;-70
2023/01/27 12:41:00;;;;;;;0.95;0.60;;;19.70;60.60;;;;;;5052266;28;20136;-71
2023/01/27 12:43:27;;;;;;;1.02;0.13;;;19.80;61.20;;;;;;5043226;28;20397;-70
2023/01/27 12:46:19;;;;;;;2.22;0.47;;;19.80;60.50;;;;;;5032441;28;20053;-70
2023/01/27 12:48:50;;;;;;;1.55;0.40;;;19.90;60.60;;;;;;5038866;28;20120;-69
2023/01/27 12:51:20;;;;;;;1.25;0.52;;;19.80;60.50;;;;;;5041879;28;20049;-69
2023/01/27 12:53:49;;;;;;;0.73;0.45;;;19.80;61.10;;;;;;5031350;28;20471;-67
2023/01/27 12:56:18;;;;;;;0.30;0.00;;;19.80;60.60;;;;;;5032201;28;20053;-67
2023/01/27 12:58:47;;;;;;;2.55;0.60;;;19.80;60.60;;;;;;5033865;28;20045;-70
2023/01/27 13:01:28;;;;;;;0.50;0.35;;;19.80;60.70;;;;;;5039969;28;20609;-72
2023/01/27 13:04:00;;;;;;;1.75;0.30;;;19.70;60.80;;;;;;5040744;28;20084;-69
2023/01/27 13:06:33;;;;;;;0.25;0.10;;;19.70;61.00;;;;;;5045449;28;20413;-68
2023/01/27 13:09:01;;;;;;;0.40;0.10;;;19.70;60.90;;;;;;5042939;28;20478;-69
2023/01/27 13:11:37;;;;;;;0.60;0.35;;;19.60;61.50;;;;;;5049436;28;20106;-69
2023/01/27 13:14:08;;;;;;;0.95;0.40;;;19.60;61.00;;;;;;5049727;28;20087;-70
2023/01/27 13:16:35;;;;;;;3.58;0.40;;;19.50;61.00;;;;;;5042593;28;20061;-72
2023/01/27 13:19:16;;;;;;;0.70;0.40;;;19.50;61.10;;;;;;5030852;28;20069;-71
2023/01/27 13:21:46;;;;;;;1.45;0.52;;;19.50;61.20;;;;;;5032652;28;20056;-69
2023/01/27 13:24:18;;;;;;;1.15;0.63;;;19.40;61.20;;;;;;5039544;28;20056;-69
2023/01/27 13:26:46;;;;;;;0.73;0.30;;;19.40;61.30;;;;;;5034805;28;20490;-72
2023/01/27 13:29:19;;;;;;;1.13;0.38;;;19.40;61.40;;;;;;5040893;28;20045;-70
2023/01/27 13:31:50;;;;;;;0.90;0.40;;;19.30;61.50;;;;;;5033885;28;20148;-69
2023/01/27 13:34:25;;;;;;;0.65;0.10;;;19.30;61.50;;;;;;5047053;28;20050;-69
2023/01/27 13:36:59;;;;;;;0.65;0.32;;;19.20;61.50;;;;;;5032288;28;20045;-71
2023/01/27 13:39:43;;;;;;;0.60;0.10;;;19.20;61.60;;;;;;5042888;28;20476;-74